Paxico, KS (66526)

8:55 PM CST on December 17, 2014 (GMT -0600)
MesoWest PAXICO KS US UPR | Change Station
CLOSE
Current Station
Personal Weather Station
Location: Paxico, KS
Elevation: 984 ft
Nearby Weather Stations
Active Advisory: Winter Weather Advisory Active Notice: Public Information Statement

Elev 984 ft 39.06 °N, 96.13 °W | Updated 1 hour ago

Overcast
Overcast
31 °F
Feels Like 31 °F
N
Wind Variable Wind from North
Gusts 0.0 mph

Today
High -- | Low -- °F
--% Chance of Precip.
Yesterday
High -- | Low -- °F
Precip. -- in
7:37 AM 5:03 PM
Waning Crescent, 18% visible
Pressure 30.27 in
Visibility 10.0 miles
Clouds Scattered Clouds 5000 ft
Overcast 6500 ft
Windchill 31 °F
Dew Point Not available.
Humidity Not available.
Rainfall -999.00 in
Snow Depth Not available.
UV 0 out of 12
Pollen .10 out of 12
Air Quality Not available.
Flu Activity Not available.
METAR KMHK 180152Z 08005KT 10SM SCT050 OVC065 M02/M06 A3023 RMK AO2 SLP251 T10171056

More Conditions Fewer Conditions

Pressure 30.27 in
Visibility 10.0 miles
Clouds Scattered Clouds 5000 ft
Overcast 6500 ft
Windchill 31 °F
Dew Point Not available.
Humidity Not available.
Rainfall -999.00 in
Snow Depth Not available.
UV 0 out of 12
Pollen .10 out of 12
Air Quality Not available.
Flu Activity Not available.
METAR KMHK 180152Z 08005KT 10SM SCT050 OVC065 M02/M06 A3023 RMK AO2 SLP251 T10171056

More Conditions Fewer Conditions

10-Day Weather Forecast

Almanac

Astronomy

Dec. 17, 2014 Rise Set
Actual Time
Civil Twilight
Nautical Twilight
Astronomical Twilight
Moon
Length of Visible Light
Length of Day
Tomorrow will be .
, % of the Moon is Illuminated

Today's Extremes

State Highs State Lows

Community

WunderPhotos

Upload Photos

1,778,871 photos uploaded!

WunderBlogs® & News

Nearby

Air Quality

  Air Quality AQ Index Pollutant
Not available.

Snow Depth

Station Depth Elevation

Earthquake Activity

City Distance Mag. Time & Date
Minimum magnitude displayed is 2.5.

Coastal Water Temperatures

Place Temperature

Nearby Weather Stations